sensor_id;sensor_type;location;lat;lon;timestamp;pressure;altitude;pressure_sealevel;temperature;humidity
22938;BME280;11634;42.734;23.298;2023-02-04T00:01:12;95011.34;;;1.28;100.00
22938;BME280;11634;42.734;23.298;2023-02-04T00:03:37;95020.81;;;1.41;100.00
22938;BME280;11634;42.734;23.298;2023-02-04T00:06:03;95016.31;;;1.45;100.00
22938;BME280;11634;42.734;23.298;2023-02-04T00:08:28;95006.00;;;1.46;100.00
22938;BME280;11634;42.734;23.298;2023-02-04T00:10:54;94976.38;;;1.27;100.00
22938;BME280;11634;42.734;23.298;2023-02-04T00:13:19;94961.84;;;1.27;100.00
22938;BME280;11634;42.734;23.298;2023-02-04T00:15:45;94888.69;;;0.63;100.00
22938;BME280;11634;42.734;23.298;2023-02-04T00:18:10;94975.50;;;1.42;100.00
22938;BME280;11634;42.734;23.298;2023-02-04T00:20:36;94956.72;;;1.27;100.00
22938;BME280;11634;42.734;23.298;2023-02-04T00:23:02;94982.28;;;1.43;100.00
22938;BME280;11634;42.734;23.298;2023-02-04T00:25:27;94984.28;;;1.38;100.00
22938;BME280;11634;42.734;23.298;2023-02-04T00:27:53;94965.94;;;1.30;100.00
22938;BME280;11634;42.734;23.298;2023-02-04T00:30:19;94976.97;;;1.46;100.00
22938;BME280;11634;42.734;23.298;2023-02-04T00:32:45;94941.44;;;1.26;100.00
22938;BME280;11634;42.734;23.298;2023-02-04T00:35:10;94989.59;;;1.49;100.00
22938;BME280;11634;42.734;23.298;2023-02-04T00:37:36;94990.53;;;1.48;100.00
22938;BME280;11634;42.734;23.298;2023-02-04T00:40:03;94978.34;;;1.51;100.00
22938;BME280;11634;42.734;23.298;2023-02-04T00:42:29;94971.31;;;1.41;100.00
22938;BME280;11634;42.734;23.298;2023-02-04T00:44:56;94985.41;;;1.48;100.00
22938;BME280;11634;42.734;23.298;2023-02-04T00:47:22;94968.00;;;1.39;100.00
22938;BME280;11634;42.734;23.298;2023-02-04T00:49:48;94952.03;;;1.34;100.00
22938;BME280;11634;42.734;23.298;2023-02-04T00:52:14;94971.03;;;1.45;100.00
22938;BME280;11634;42.734;23.298;2023-02-04T00:54:40;94963.69;;;1.39;100.00
22938;BME280;11634;42.734;23.298;2023-02-04T00:57:05;94978.03;;;1.57;100.00
22938;BME280;11634;42.734;23.298;2023-02-04T00:59:31;94913.84;;;1.15;100.00
22938;BME280;11634;42.734;23.298;2023-02-04T01:01:58;94972.13;;;1.41;100.00
22938;BME280;11634;42.734;23.298;2023-02-04T01:04:25;94966.44;;;1.50;100.00
22938;BME280;11634;42.734;23.298;2023-02-04T01:06:52;94937.81;;;1.44;100.00
22938;BME280;11634;42.734;23.298;2023-02-04T01:09:18;94956.03;;;1.53;100.00
22938;BME280;11634;42.734;23.298;2023-02-04T01:11:44;94968.41;;;1.61;100.00
22938;BME280;11634;42.734;23.298;2023-02-04T01:14:09;94982.09;;;1.75;100.00
22938;BME280;11634;42.734;23.298;2023-02-04T01:16:35;94979.59;;;1.73;100.00
22938;BME280;11634;42.734;23.298;2023-02-04T01:19:00;94971.63;;;1.78;100.00
22938;BME280;11634;42.734;23.298;2023-02-04T01:21:26;94947.06;;;1.60;100.00
22938;BME280;11634;42.734;23.298;2023-02-04T01:23:52;94983.84;;;1.88;100.00
22938;BME280;11634;42.734;23.298;2023-02-04T01:26:18;94975.97;;;1.91;100.00
22938;BME280;11634;42.734;23.298;2023-02-04T01:28:44;94982.38;;;1.84;100.00
22938;BME280;11634;42.734;23.298;2023-02-04T01:31:10;94927.38;;;1.61;100.00
22938;BME280;11634;42.734;23.298;2023-02-04T01:33:37;94974.88;;;1.95;100.00
22938;BME280;11634;42.734;23.298;2023-02-04T01:36:02;94972.66;;;1.89;100.00
22938;BME280;11634;42.734;23.298;2023-02-04T01:38:29;94944.09;;;1.81;100.00
22938;BME280;11634;42.734;23.298;2023-02-04T01:40:55;94959.66;;;1.92;100.00
22938;BME280;11634;42.734;23.298;2023-02-04T01:43:22;94927.56;;;1.85;100.00
22938;BME280;11634;42.734;23.298;2023-02-04T01:45:48;94950.50;;;2.02;100.00
22938;BME280;11634;42.734;23.298;2023-02-04T01:48:14;94962.13;;;2.08;100.00
22938;BME280;11634;42.734;23.298;2023-02-04T01:50:52;94954.50;;;2.20;100.00
22938;BME280;11634;42.734;23.298;2023-02-04T01:53:21;94944.88;;;2.37;100.00
22938;BME280;11634;42.734;23.298;2023-02-04T01:55:47;94955.13;;;2.51;100.00
22938;BME280;11634;42.734;23.298;2023-02-04T01:58:13;94959.94;;;2.70;100.00
22938;BME280;11634;42.734;23.298;2023-02-04T02:00:40;94981.91;;;2.87;100.00
22938;BME280;11634;42.734;23.298;2023-02-04T02:03:08;94986.72;;;2.79;100.00
22938;BME280;11634;42.734;23.298;2023-02-04T02:08:04;94990.63;;;2.85;100.00
22938;BME280;11634;42.734;23.298;2023-02-04T02:10:31;94972.25;;;2.65;100.00
22938;BME280;11634;42.734;23.298;2023-02-04T02:12:58;94967.44;;;2.46;100.00
22938;BME280;11634;42.734;23.298;2023-02-04T02:15:25;94985.84;;;2.67;100.00
22938;BME280;11634;42.734;23.298;2023-02-04T02:17:53;94959.78;;;2.45;100.00
22938;BME280;11634;42.734;23.298;2023-02-04T02:20:24;94963.03;;;2.34;100.00
22938;BME280;11634;42.734;23.298;2023-02-04T02:23:01;94974.09;;;2.49;100.00
22938;BME280;11634;42.734;23.298;2023-02-04T02:25:29;94965.28;;;2.53;100.00
22938;BME280;11634;42.734;23.298;2023-02-04T02:27:56;94943.28;;;2.49;100.00
22938;BME280;11634;42.734;23.298;2023-02-04T02:30:22;94842.69;;;1.90;100.00
22938;BME280;11634;42.734;23.298;2023-02-04T02:32:49;94913.69;;;2.43;100.00
22938;BME280;11634;42.734;23.298;2023-02-04T02:35:16;94917.00;;;2.45;100.00
22938;BME280;11634;42.734;23.298;2023-02-04T02:37:42;94910.31;;;2.43;100.00
22938;BME280;11634;42.734;23.298;2023-02-04T02:40:09;94902.25;;;2.35;100.00
22938;BME280;11634;42.734;23.298;2023-02-04T02:42:35;94902.81;;;2.40;100.00
22938;BME280;11634;42.734;23.298;2023-02-04T02:45:07;94906.31;;;2.25;100.00
22938;BME280;11634;42.734;23.298;2023-02-04T02:47:36;94874.81;;;2.09;100.00
22938;BME280;11634;42.734;23.298;2023-02-04T02:50:01;94883.56;;;2.19;100.00
22938;BME280;11634;42.734;23.298;2023-02-04T02:52:27;94864.25;;;2.14;100.00
22938;BME280;11634;42.734;23.298;2023-02-04T02:54:52;94862.06;;;2.08;100.00
22938;BME280;11634;42.734;23.298;2023-02-04T02:57:20;94834.94;;;2.04;100.00
22938;BME280;11634;42.734;23.298;2023-02-04T02:59:47;94863.59;;;2.24;100.00
22938;BME280;11634;42.734;23.298;2023-02-04T03:02:16;94853.41;;;2.22;100.00
22938;BME280;11634;42.734;23.298;2023-02-04T03:04:45;94854.13;;;2.24;100.00
22938;BME280;11634;42.734;23.298;2023-02-04T03:07:15;94860.88;;;2.13;100.00
22938;BME280;11634;42.734;23.298;2023-02-04T03:09:44;94864.19;;;2.01;100.00
22938;BME280;11634;42.734;23.298;2023-02-04T03:12:10;94845.84;;;1.93;100.00
22938;BME280;11634;42.734;23.298;2023-02-04T03:14:36;94828.19;;;1.89;100.00
22938;BME280;11634;42.734;23.298;2023-02-04T03:17:06;94836.44;;;1.80;100.00
22938;BME280;11634;42.734;23.298;2023-02-04T03:19:33;94777.41;;;1.54;100.00
22938;BME280;11634;42.734;23.298;2023-02-04T03:22:01;94781.81;;;1.65;100.00
22938;BME280;11634;42.734;23.298;2023-02-04T03:24:28;94772.78;;;1.86;100.00
22938;BME280;11634;42.734;23.298;2023-02-04T03:26:55;94780.56;;;1.85;100.00
22938;BME280;11634;42.734;23.298;2023-02-04T03:29:21;94817.97;;;2.15;100.00
22938;BME280;11634;42.734;23.298;2023-02-04T03:31:46;94791.00;;;1.96;100.00
22938;BME280;11634;42.734;23.298;2023-02-04T03:34:12;94788.63;;;1.93;100.00
22938;BME280;11634;42.734;23.298;2023-02-04T03:36:39;94801.84;;;2.13;100.00
22938;BME280;11634;42.734;23.298;2023-02-04T03:39:06;94808.97;;;2.22;100.00
22938;BME280;11634;42.734;23.298;2023-02-04T03:41:31;94808.78;;;2.25;100.00
22938;BME280;11634;42.734;23.298;2023-02-04T03:43:57;94763.69;;;1.95;100.00
22938;BME280;11634;42.734;23.298;2023-02-04T03:46:22;94774.28;;;2.17;100.00
22938;BME280;11634;42.734;23.298;2023-02-04T03:48:50;94798.13;;;2.31;100.00
22938;BME280;11634;42.734;23.298;2023-02-04T03:51:15;94811.16;;;2.28;100.00
22938;BME280;11634;42.734;23.298;2023-02-04T03:53:41;94776.72;;;2.18;100.00
22938;BME280;11634;42.734;23.298;2023-02-04T03:56:06;94797.41;;;2.29;100.00
22938;BME280;11634;42.734;23.298;2023-02-04T03:58:35;94778.91;;;2.24;100.00
22938;BME280;11634;42.734;23.298;2023-02-04T04:01:00;94777.69;;;2.29;100.00
22938;BME280;11634;42.734;23.298;2023-02-04T04:03:26;94783.84;;;2.27;100.00
22938;BME280;11634;42.734;23.298;2023-02-04T04:05:51;94773.47;;;2.28;100.00
22938;BME280;11634;42.734;23.298;2023-02-04T04:08:22;94784.31;;;2.46;100.00
22938;BME280;11634;42.734;23.298;2023-02-04T04:10:48;94777.16;;;2.51;100.00
22938;BME280;11634;42.734;23.298;2023-02-04T04:13:13;94774.44;;;2.40;100.00
22938;BME280;11634;42.734;23.298;2023-02-04T04:15:40;94757.38;;;2.39;100.00
22938;BME280;11634;42.734;23.298;2023-02-04T04:18:06;94777.47;;;2.59;100.00
22938;BME280;11634;42.734;23.298;2023-02-04T04:20:31;94763.78;;;2.46;100.00
22938;BME280;11634;42.734;23.298;2023-02-04T04:22:57;94781.53;;;2.49;100.00
22938;BME280;11634;42.734;23.298;2023-02-04T04:25:22;94763.78;;;2.46;100.00
22938;BME280;11634;42.734;23.298;2023-02-04T04:27:48;94757.56;;;2.23;100.00
22938;BME280;11634;42.734;23.298;2023-02-04T04:30:13;94760.16;;;2.36;100.00
22938;BME280;11634;42.734;23.298;2023-02-04T04:32:39;94725.19;;;2.09;100.00
22938;BME280;11634;42.734;23.298;2023-02-04T04:35:05;94723.59;;;1.94;100.00
22938;BME280;11634;42.734;23.298;2023-02-04T04:37:31;94727.31;;;2.02;100.00
22938;BME280;11634;42.734;23.298;2023-02-04T04:40:00;94717.47;;;2.09;100.00
22938;BME280;11634;42.734;23.298;2023-02-04T04:42:27;94723.56;;;2.20;100.00
22938;BME280;11634;42.734;23.298;2023-02-04T04:44:52;94737.31;;;2.19;100.00
22938;BME280;11634;42.734;23.298;2023-02-04T04:47:17;94719.97;;;2.22;100.00
22938;BME280;11634;42.734;23.298;2023-02-04T04:49:43;94737.97;;;2.35;100.00
22938;BME280;11634;42.734;23.298;2023-02-04T04:52:08;94672.22;;;2.08;100.00
22938;BME280;11634;42.734;23.298;2023-02-04T04:54:35;94748.50;;;2.57;100.00
22938;BME280;11634;42.734;23.298;2023-02-04T04:57:00;94746.16;;;2.66;100.00
22938;BME280;11634;42.734;23.298;2023-02-04T04:59:26;94723.78;;;2.68;100.00
22938;BME280;11634;42.734;23.298;2023-02-04T05:01:51;94750.28;;;3.06;100.00
22938;BME280;11634;42.734;23.298;2023-02-04T05:04:17;94768.69;;;3.24;100.00
22938;BME280;11634;42.734;23.298;2023-02-04T05:06:42;94763.72;;;3.46;100.00
22938;BME280;11634;42.734;23.298;2023-02-04T05:09:09;94766.59;;;3.67;100.00
22938;BME280;11634;42.734;23.298;2023-02-04T05:11:36;94788.13;;;3.66;100.00
22938;BME280;11634;42.734;23.298;2023-02-04T05:14:03;94793.88;;;3.57;100.00
22938;BME280;11634;42.734;23.298;2023-02-04T05:16:30;94809.81;;;3.62;100.00
22938;BME280;11634;42.734;23.298;2023-02-04T05:18:56;94791.41;;;3.55;100.00
22938;BME280;11634;42.734;23.298;2023-02-04T05:21:21;94821.66;;;3.77;100.00
22938;BME280;11634;42.734;23.298;2023-02-04T05:23:47;94817.75;;;3.71;100.00
22938;BME280;11634;42.734;23.298;2023-02-04T05:26:12;94851.06;;;3.85;100.00
22938;BME280;11634;42.734;23.298;2023-02-04T05:28:38;94843.47;;;3.71;100.00
22938;BME280;11634;42.734;23.298;2023-02-04T05:31:03;94861.69;;;3.80;100.00
22938;BME280;11634;42.734;23.298;2023-02-04T05:33:29;94878.13;;;3.78;100.00
22938;BME280;11634;42.734;23.298;2023-02-04T05:35:54;94834.81;;;3.35;100.00
22938;BME280;11634;42.734;23.298;2023-02-04T05:38:20;94850.88;;;3.51;100.00
22938;BME280;11634;42.734;23.298;2023-02-04T05:40:47;94829.38;;;3.27;100.00
22938;BME280;11634;42.734;23.298;2023-02-04T05:43:12;94835.34;;;3.27;100.00
22938;BME280;11634;42.734;23.298;2023-02-04T05:45:38;94854.91;;;3.42;100.00
22938;BME280;11634;42.734;23.298;2023-02-04T05:48:03;94853.84;;;3.45;100.00
22938;BME280;11634;42.734;23.298;2023-02-04T05:50:29;94858.50;;;3.40;100.00
22938;BME280;11634;42.734;23.298;2023-02-04T05:53:07;94829.47;;;3.25;100.00
22938;BME280;11634;42.734;23.298;2023-02-04T05:55:32;94842.22;;;3.27;100.00
22938;BME280;11634;42.734;23.298;2023-02-04T05:57:58;94767.25;;;2.83;100.00
22938;BME280;11634;42.734;23.298;2023-02-04T06:00:23;94858.75;;;3.23;100.00
22938;BME280;11634;42.734;23.298;2023-02-04T06:02:49;94853.84;;;3.20;100.00
22938;BME280;11634;42.734;23.298;2023-02-04T06:05:14;94873.16;;;3.25;100.00
22938;BME280;11634;42.734;23.298;2023-02-04T06:07:40;94867.22;;;3.25;100.00
22938;BME280;11634;42.734;23.298;2023-02-04T06:10:05;94880.69;;;3.28;100.00
22938;BME280;11634;42.734;23.298;2023-02-04T06:12:31;94889.56;;;3.37;100.00
22938;BME280;11634;42.734;23.298;2023-02-04T06:14:56;94895.31;;;3.40;100.00
22938;BME280;11634;42.734;23.298;2023-02-04T06:17:22;94915.28;;;3.37;100.00
22938;BME280;11634;42.734;23.298;2023-02-04T06:19:49;94865.66;;;3.23;100.00
22938;BME280;11634;42.734;23.298;2023-02-04T06:22:14;94893.38;;;3.44;100.00
22938;BME280;11634;42.734;23.298;2023-02-04T06:24:40;94864.75;;;3.36;100.00
22938;BME280;11634;42.734;23.298;2023-02-04T06:27:05;94879.28;;;3.49;100.00
22938;BME280;11634;42.734;23.298;2023-02-04T06:29:31;94882.25;;;3.56;100.00
22938;BME280;11634;42.734;23.298;2023-02-04T06:31:56;94868.47;;;3.44;100.00
22938;BME280;11634;42.734;23.298;2023-02-04T06:34:22;94901.09;;;3.69;100.00
22938;BME280;11634;42.734;23.298;2023-02-04T06:36:47;94882.75;;;3.61;100.00
22938;BME280;11634;42.734;23.298;2023-02-04T06:39:13;94911.47;;;3.79;100.00
22938;BME280;11634;42.734;23.298;2023-02-04T06:41:38;94916.13;;;3.87;100.00
22938;BME280;11634;42.734;23.298;2023-02-04T06:44:04;94899.53;;;3.78;100.00
22938;BME280;11634;42.734;23.298;2023-02-04T06:46:29;94913.13;;;4.05;100.00
22938;BME280;11634;42.734;23.298;2023-02-04T06:48:55;94919.84;;;4.43;100.00
22938;BME280;11634;42.734;23.298;2023-02-04T06:51:21;94861.97;;;4.36;100.00
22938;BME280;11634;42.734;23.298;2023-02-04T06:53:46;94924.41;;;4.76;100.00
22938;BME280;11634;42.734;23.298;2023-02-04T06:56:12;94915.25;;;4.72;100.00
22938;BME280;11634;42.734;23.298;2023-02-04T06:58:37;94914.88;;;4.88;100.00
22938;BME280;11634;42.734;23.298;2023-02-04T07:01:03;94902.47;;;4.93;100.00
22938;BME280;11634;42.734;23.298;2023-02-04T07:03:30;94922.34;;;5.04;100.00
22938;BME280;11634;42.734;23.298;2023-02-04T07:05:56;94909.75;;;4.76;100.00
22938;BME280;11634;42.734;23.298;2023-02-04T07:08:22;94912.13;;;4.79;100.00
22938;BME280;11634;42.734;23.298;2023-02-04T07:10:48;94907.91;;;4.78;100.00
22938;BME280;11634;42.734;23.298;2023-02-04T07:13:15;94876.25;;;4.76;100.00
22938;BME280;11634;42.734;23.298;2023-02-04T07:15:41;94917.81;;;5.07;100.00
22938;BME280;11634;42.734;23.298;2023-02-04T07:18:07;94880.84;;;5.07;100.00
22938;BME280;11634;42.734;23.298;2023-02-04T07:20:32;94828.13;;;4.53;100.00
22938;BME280;11634;42.734;23.298;2023-02-04T07:23:00;94899.63;;;5.09;100.00
22938;BME280;11634;42.734;23.298;2023-02-04T07:25:26;94893.41;;;5.11;100.00
22938;BME280;11634;42.734;23.298;2023-02-04T07:27:51;94861.84;;;4.74;100.00
22938;BME280;11634;42.734;23.298;2023-02-04T07:30:17;94893.81;;;4.94;100.00
22938;BME280;11634;42.734;23.298;2023-02-04T07:32:42;94869.22;;;5.01;100.00
22938;BME280;11634;42.734;23.298;2023-02-04T07:35:09;94839.03;;;4.80;100.00
22938;BME280;11634;42.734;23.298;2023-02-04T07:37:34;94891.63;;;5.35;100.00
22938;BME280;11634;42.734;23.298;2023-02-04T07:40:00;94897.28;;;5.40;100.00
22938;BME280;11634;42.734;23.298;2023-02-04T07:42:26;94896.31;;;5.30;100.00
22938;BME280;11634;42.734;23.298;2023-02-04T07:45:02;94896.84;;;5.57;100.00
22938;BME280;11634;42.734;23.298;2023-02-04T07:47:27;94871.25;;;5.43;100.00
22938;BME280;11634;42.734;23.298;2023-02-04T07:49:53;94888.41;;;5.44;100.00
22938;BME280;11634;42.734;23.298;2023-02-04T07:52:22;94894.25;;;5.91;100.00
22938;BME280;11634;42.734;23.298;2023-02-04T07:54:48;94897.81;;;5.67;100.00
22938;BME280;11634;42.734;23.298;2023-02-04T07:57:13;94885.03;;;5.65;100.00
22938;BME280;11634;42.734;23.298;2023-02-04T07:59:40;94909.84;;;5.79;100.00
22938;BME280;11634;42.734;23.298;2023-02-04T08:02:06;94863.88;;;5.39;100.00
22938;BME280;11634;42.734;23.298;2023-02-04T08:04:31;94897.81;;;5.67;100.00
22938;BME280;11634;42.734;23.298;2023-02-04T08:06:57;94858.69;;;5.28;100.00
22938;BME280;11634;42.734;23.298;2023-02-04T08:09:22;94891.53;;;5.37;100.00
22938;BME280;11634;42.734;23.298;2023-02-04T08:11:52;94898.00;;;5.42;100.00
22938;BME280;11634;42.734;23.298;2023-02-04T08:14:17;94891.69;;;5.57;100.00
22938;BME280;11634;42.734;23.298;2023-02-04T08:16:43;94899.66;;;5.54;100.00
22938;BME280;11634;42.734;23.298;2023-02-04T08:19:08;94891.25;;;5.63;100.00
22938;BME280;11634;42.734;23.298;2023-02-04T08:21:34;94902.72;;;5.48;100.00
22938;BME280;11634;42.734;23.298;2023-02-04T08:24:01;94892.44;;;5.36;100.00
22938;BME280;11634;42.734;23.298;2023-02-04T08:26:27;94847.56;;;5.04;100.00
22938;BME280;11634;42.734;23.298;2023-02-04T08:28:52;94898.91;;;5.41;100.00
22938;BME280;11634;42.734;23.298;2023-02-04T08:31:19;94900.06;;;5.37;100.00
22938;BME280;11634;42.734;23.298;2023-02-04T08:33:44;94896.97;;;5.55;100.00
22938;BME280;11634;42.734;23.298;2023-02-04T08:36:10;94866.66;;;5.36;100.00
22938;BME280;11634;42.734;23.298;2023-02-04T08:38:36;94872.78;;;5.35;100.00
22938;BME280;11634;42.734;23.298;2023-02-04T08:41:01;94897.66;;;5.57;100.00
22938;BME280;11634;42.734;23.298;2023-02-04T08:43:27;94873.22;;;5.40;100.00
22938;BME280;11634;42.734;23.298;2023-02-04T08:45:52;94892.44;;;5.36;100.00
22938;BME280;11634;42.734;23.298;2023-02-04T08:48:18;94888.63;;;5.18;100.00
22938;BME280;11634;42.734;23.298;2023-02-04T08:50:43;94884.06;;;5.10;100.00
22938;BME280;11634;42.734;23.298;2023-02-04T08:53:09;94881.75;;;5.18;100.00
22938;BME280;11634;42.734;23.298;2023-02-04T08:55:36;94865.81;;;5.24;100.00
22938;BME280;11634;42.734;23.298;2023-02-04T08:58:03;94880.22;;;5.16;100.00
22938;BME280;11634;42.734;23.298;2023-02-04T09:00:28;94887.22;;;5.14;100.00
22938;BME280;11634;42.734;23.298;2023-02-04T09:02:54;94883.72;;;5.15;100.00
22938;BME280;11634;42.734;23.298;2023-02-04T09:05:20;94876.47;;;5.20;100.00
22938;BME280;11634;42.734;23.298;2023-02-04T09:07:45;94877.50;;;5.17;100.00
22938;BME280;11634;42.734;23.298;2023-02-04T09:10:11;94892.75;;;5.20;100.00
22938;BME280;11634;42.734;23.298;2023-02-04T09:12:37;94873.00;;;5.08;100.00
22938;BME280;11634;42.734;23.298;2023-02-04T09:15:02;94880.06;;;5.06;100.00
22938;BME280;11634;42.734;23.298;2023-02-04T09:17:28;94876.13;;;5.24;100.00
22938;BME280;11634;42.734;23.298;2023-02-04T09:19:53;94877.00;;;5.46;100.00
22938;BME280;11634;42.734;23.298;2023-02-04T09:22:19;94856.97;;;5.61;100.00
22938;BME280;11634;42.734;23.298;2023-02-04T09:24:44;94875.22;;;5.81;100.00
22938;BME280;11634;42.734;23.298;2023-02-04T09:27:10;94884.75;;;5.57;100.00
22938;BME280;11634;42.734;23.298;2023-02-04T09:29:35;94890.66;;;5.70;100.00
22938;BME280;11634;42.734;23.298;2023-02-04T09:32:01;94867.53;;;5.58;100.00
22938;BME280;11634;42.734;23.298;2023-02-04T09:34:26;94858.06;;;5.24;100.00
22938;BME280;11634;42.734;23.298;2023-02-04T09:36:52;94876.09;;;5.13;100.00
22938;BME280;11634;42.734;23.298;2023-02-04T09:39:17;94889.88;;;5.01;100.00
22938;BME280;11634;42.734;23.298;2023-02-04T09:41:43;94851.31;;;4.77;100.00
22938;BME280;11634;42.734;23.298;2023-02-04T09:44:13;94821.97;;;4.67;100.00
22938;BME280;11634;42.734;23.298;2023-02-04T09:46:47;94855.84;;;4.73;100.00
22938;BME280;11634;42.734;23.298;2023-02-04T09:49:13;94832.19;;;4.68;100.00
22938;BME280;11634;42.734;23.298;2023-02-04T09:51:42;94830.94;;;4.74;100.00
22938;BME280;11634;42.734;23.298;2023-02-04T09:54:12;94810.56;;;4.82;100.00
22938;BME280;11634;42.734;23.298;2023-02-04T09:56:39;94812.41;;;4.69;100.00
22938;BME280;11634;42.734;23.298;2023-02-04T09:59:16;94824.78;;;4.64;100.00
22938;BME280;11634;42.734;23.298;2023-02-04T10:01:44;94819.19;;;4.70;100.00
22938;BME280;11634;42.734;23.298;2023-02-04T10:04:12;94817.31;;;4.72;100.00
22938;BME280;11634;42.734;23.298;2023-02-04T10:06:39;94806.97;;;4.61;100.00
22938;BME280;11634;42.734;23.298;2023-02-04T10:09:09;94775.53;;;4.56;100.00
22938;BME280;11634;42.734;23.298;2023-02-04T10:11:37;94796.69;;;4.72;100.00
22938;BME280;11634;42.734;23.298;2023-02-04T10:14:03;94781.59;;;4.67;100.00
22938;BME280;11634;42.734;23.298;2023-02-04T10:16:31;94799.31;;;4.83;100.00
22938;BME280;11634;42.734;23.298;2023-02-04T10:19:02;94797.63;;;4.71;100.00
22938;BME280;11634;42.734;23.298;2023-02-04T10:21:30;94781.50;;;4.45;100.00
22938;BME280;11634;42.734;23.298;2023-02-04T10:23:57;94754.69;;;4.48;100.00
22938;BME280;11634;42.734;23.298;2023-02-04T10:26:28;94752.50;;;4.65;100.00
22938;BME280;11634;42.734;23.298;2023-02-04T10:31:42;94767.63;;;4.93;100.00
22938;BME280;11634;42.734;23.298;2023-02-04T10:36:47;94783.28;;;4.79;100.00
22938;BME280;11634;42.734;23.298;2023-02-04T10:39:17;94770.41;;;4.56;100.00
22938;BME280;11634;42.734;23.298;2023-02-04T10:41:49;94739.75;;;4.64;100.00
22938;BME280;11634;42.734;23.298;2023-02-04T10:44:31;94759.78;;;4.60;100.00
22938;BME280;11634;42.734;23.298;2023-02-04T10:47:25;94732.13;;;4.62;100.00
22938;BME280;11634;42.734;23.298;2023-02-04T10:50:18;94735.59;;;4.74;100.00
22938;BME280;11634;42.734;23.298;2023-02-04T10:52:47;94710.75;;;4.73;100.00
22938;BME280;11634;42.734;23.298;2023-02-04T10:55:17;94718.63;;;4.82;100.00
22938;BME280;11634;42.734;23.298;2023-02-04T10:57:46;94726.25;;;4.94;100.00
22938;BME280;11634;42.734;23.298;2023-02-04T11:00:21;94728.03;;;4.94;100.00
22938;BME280;11634;42.734;23.298;2023-02-04T11:03:01;94729.19;;;4.90;100.00
22938;BME280;11634;42.734;23.298;2023-02-04T11:05:30;94715.00;;;4.85;100.00
22938;BME280;11634;42.734;23.298;2023-02-04T11:07:57;94716.63;;;4.86;100.00
22938;BME280;11634;42.734;23.298;2023-02-04T11:10:27;94714.66;;;5.00;100.00
22938;BME280;11634;42.734;23.298;2023-02-04T11:15:42;94722.50;;;4.88;100.00
22938;BME280;11634;42.734;23.298;2023-02-04T11:20:45;94723.78;;;4.93;100.00
22938;BME280;11634;42.734;23.298;2023-02-04T11:23:38;94710.09;;;4.92;100.00
22938;BME280;11634;42.734;23.298;2023-02-04T11:26:19;94695.50;;;4.70;100.00
22938;BME280;11634;42.734;23.298;2023-02-04T11:34:09;94693.09;;;4.56;100.00
22938;BME280;11634;42.734;23.298;2023-02-04T11:36:50;94723.91;;;4.91;100.00
22938;BME280;11634;42.734;23.298;2023-02-04T11:39:19;94699.38;;;4.75;100.00
22938;BME280;11634;42.734;23.298;2023-02-04T11:41:45;94686.81;;;4.71;100.00
22938;BME280;11634;42.734;23.298;2023-02-04T11:44:12;94659.59;;;4.45;100.00
22938;BME280;11634;42.734;23.298;2023-02-04T11:46:39;94703.28;;;4.81;100.00
22938;BME280;11634;42.734;23.298;2023-02-04T11:49:17;94694.00;;;4.78;100.00
22938;BME280;11634;42.734;23.298;2023-02-04T11:51:44;94705.06;;;4.57;100.00
22938;BME280;11634;42.734;23.298;2023-02-04T11:54:12;94681.44;;;4.63;100.00
22938;BME280;11634;42.734;23.298;2023-02-04T11:56:38;94678.19;;;4.83;100.00
22938;BME280;11634;42.734;23.298;2023-02-04T11:59:03;94684.31;;;4.92;100.00
22938;BME280;11634;42.734;23.298;2023-02-04T12:01:31;94667.31;;;4.90;100.00
22938;BME280;11634;42.734;23.298;2023-02-04T12:03:59;94679.88;;;5.05;100.00
22938;BME280;11634;42.734;23.298;2023-02-04T12:06:30;94689.78;;;4.88;100.00
22938;BME280;11634;42.734;23.298;2023-02-04T12:09:18;94683.34;;;4.83;100.00
22938;BME280;11634;42.734;23.298;2023-02-04T12:11:57;94683.25;;;5.06;100.00
22938;BME280;11634;42.734;23.298;2023-02-04T12:14:34;94679.31;;;4.57;100.00
22938;BME280;11634;42.734;23.298;2023-02-04T12:17:15;94665.00;;;4.53;100.00
22938;BME280;11634;42.734;23.298;2023-02-04T12:19:41;94686.38;;;4.66;100.00
22938;BME280;11634;42.734;23.298;2023-02-04T12:22:07;94681.47;;;4.74;100.00
22938;BME280;11634;42.734;23.298;2023-02-04T12:24:32;94664.41;;;4.38;100.00
22938;BME280;11634;42.734;23.298;2023-02-04T12:26:58;94657.97;;;4.44;100.00
22938;BME280;11634;42.734;23.298;2023-02-04T12:29:24;94666.38;;;4.46;100.00
22938;BME280;11634;42.734;23.298;2023-02-04T12:31:50;94645.22;;;4.42;100.00
22938;BME280;11634;42.734;23.298;2023-02-04T12:34:16;94648.13;;;4.49;100.00
22938;BME280;11634;42.734;23.298;2023-02-04T12:36:42;94652.16;;;4.64;100.00
22938;BME280;11634;42.734;23.298;2023-02-04T12:39:07;94650.31;;;4.77;100.00
22938;BME280;11634;42.734;23.298;2023-02-04T12:41:35;94640.44;;;4.71;100.00
22938;BME280;11634;42.734;23.298;2023-02-04T12:44:01;94656.53;;;4.96;100.00
22938;BME280;11634;42.734;23.298;2023-02-04T12:46:28;94660.88;;;4.85;100.00
22938;BME280;11634;42.734;23.298;2023-02-04T12:48:54;94648.56;;;4.88;100.00
22938;BME280;11634;42.734;23.298;2023-02-04T12:51:19;94660.88;;;4.95;100.00
22938;BME280;11634;42.734;23.298;2023-02-04T12:53:46;94679.75;;;5.18;100.00
22938;BME280;11634;42.734;23.298;2023-02-04T12:56:13;94667.91;;;5.26;100.00
22938;BME280;11634;42.734;23.298;2023-02-04T12:58:38;94662.19;;;5.12;100.00
22938;BME280;11634;42.734;23.298;2023-02-04T13:01:04;94690.91;;;5.40;100.00
22938;BME280;11634;42.734;23.298;2023-02-04T13:03:32;94704.97;;;5.25;100.00
22938;BME280;11634;42.734;23.298;2023-02-04T13:05:58;94701.22;;;5.29;100.00
22938;BME280;11634;42.734;23.298;2023-02-04T13:08:24;94707.06;;;5.31;100.00